Time,TemperatureF,DewpointF,PressureIn,WindDirection,WindDirectionDegrees,WindSpeedMPH,WindSpeedGustMPH,Humidity,HourlyPrecipIn,Conditions,Clouds,dailyrainin,SoftwareType,DateUTC
2013-11-07 00:14:00,62.5,62.0,30.07,ESE,105,0.0,0.0,97,0.00,,,0.00,weatherlink.com 1.10,2013-11-07 06:14:00,
2013-11-07 00:29:00,62.6,62.0,30.07,ESE,105,0.0,0.0,98,0.00,,,0.00,weatherlink.com 1.10,2013-11-07 06:29:00,
2013-11-07 00:44:00,62.3,62.0,30.07,ESE,105,0.0,0.0,98,0.00,,,0.00,weatherlink.com 1.10,2013-11-07 06:44:00,
2013-11-07 00:59:00,62.0,62.0,30.07,ESE,104,0.0,0.0,98,0.00,,,0.00,weatherlink.com 1.10,2013-11-07 06:59:00,
2013-11-07 01:14:00,61.6,61.0,30.06,ESE,105,0.0,0.0,98,0.00,,,0.00,weatherlink.com 1.10,2013-11-07 07:14:00,
2013-11-07 01:29:00,61.1,61.0,30.06,ESE,104,0.0,0.0,98,0.00,,,0.00,weatherlink.com 1.10,2013-11-07 07:29:00,
2013-11-07 01:44:00,61.4,61.0,30.06,ESE,105,0.0,0.0,98,0.00,,,0.00,weatherlink.com 1.10,2013-11-07 07:44:00,
2013-11-07 01:59:00,61.7,61.0,30.05,ESE,105,0.0,0.0,98,0.00,,,0.00,weatherlink.com 1.10,2013-11-07 07:59:00,
2013-11-07 02:14:00,61.9,61.0,30.05,ESE,104,0.0,1.0,98,0.00,,,0.00,weatherlink.com 1.10,2013-11-07 08:14:00,
2013-11-07 02:29:00,62.2,62.0,30.05,ESE,104,0.0,0.0,99,0.00,,,0.00,weatherlink.com 1.10,2013-11-07 08:29:00,
2013-11-07 02:44:00,61.8,61.0,30.05,ESE,104,0.0,0.0,98,0.00,,,0.00,weatherlink.com 1.10,2013-11-07 08:44:00,
2013-11-07 02:59:00,61.7,61.0,30.04,ESE,105,0.0,0.0,98,0.00,,,0.00,weatherlink.com 1.10,2013-11-07 08:59:00,
2013-11-07 03:14:00,62.0,62.0,30.04,ESE,104,0.0,0.0,99,0.00,,,0.00,weatherlink.com 1.10,2013-11-07 09:14:00,
2013-11-07 03:29:00,62.1,62.0,30.04,ESE,105,0.0,1.0,99,0.00,,,0.00,weatherlink.com 1.10,2013-11-07 09:29:00,
2013-11-07 03:44:00,62.2,62.0,30.04,ESE,104,0.0,0.0,98,0.00,,,0.00,weatherlink.com 1.10,2013-11-07 09:44:00,
2013-11-07 03:59:00,62.1,62.0,30.04,ESE,104,0.0,0.0,98,0.00,,,0.00,weatherlink.com 1.10,2013-11-07 09:59:00,
2013-11-07 04:14:00,61.8,61.0,30.04,ESE,105,0.0,0.0,98,0.00,,,0.00,weatherlink.com 1.10,2013-11-07 10:14:00,
2013-11-07 04:29:00,61.7,61.0,30.04,ESE,105,0.0,0.0,98,0.00,,,0.00,weatherlink.com 1.10,2013-11-07 10:29:00,
2013-11-07 04:44:00,61.8,62.0,30.04,ESE,104,0.0,0.0,99,0.00,,,0.00,weatherlink.com 1.10,2013-11-07 10:44:00,
2013-11-07 04:59:00,61.8,61.0,30.04,ESE,104,0.0,0.0,98,0.00,,,0.00,weatherlink.com 1.10,2013-11-07 10:59:00,
2013-11-07 05:14:00,61.9,62.0,30.04,ESE,105,0.0,0.0,99,0.00,,,0.00,weatherlink.com 1.10,2013-11-07 11:14:00,
2013-11-07 05:29:00,62.0,62.0,30.04,ESE,105,0.0,0.0,98,0.00,,,0.00,weatherlink.com 1.10,2013-11-07 11:29:00,
2013-11-07 05:44:00,62.1,62.0,30.04,ESE,104,0.0,0.0,98,0.00,,,0.00,weatherlink.com 1.10,2013-11-07 11:44:00,
2013-11-07 05:59:00,62.4,62.0,30.04,ESE,105,0.0,1.0,98,0.00,,,0.00,weatherlink.com 1.10,2013-11-07 11:59:00,
2013-11-07 06:14:00,62.4,62.0,30.05,ESE,104,0.0,0.0,98,0.00,,,0.00,weatherlink.com 1.10,2013-11-07 12:14:00,
2013-11-07 06:29:00,62.6,62.0,30.07,NNW,332,1.0,4.0,99,0.00,,,0.00,weatherlink.com 1.10,2013-11-07 12:29:00,
2013-11-07 06:44:00,62.9,63.0,30.07,WSW,255,0.0,1.0,99,0.01,,,0.01,weatherlink.com 1.10,2013-11-07 12:44:00,
2013-11-07 06:59:00,63.2,63.0,30.08,West,276,0.0,1.0,99,0.02,,,0.02,weatherlink.com 1.10,2013-11-07 12:59:00,
2013-11-07 07:14:00,63.3,63.0,30.09,WNW,301,2.0,2.0,99,0.04,,,0.04,weatherlink.com 1.10,2013-11-07 13:14:00,
2013-11-07 07:29:00,63.5,63.0,30.09,West,275,0.0,5.0,99,0.07,,,0.07,weatherlink.com 1.10,2013-11-07 13:29:00,
2013-11-07 07:44:00,63.8,64.0,30.10,WNW,284,1.0,4.0,99,0.07,,,0.08,weatherlink.com 1.10,2013-11-07 13:44:00,
2013-11-07 07:59:00,63.9,64.0,30.11,WNW,293,1.0,5.0,99,0.07,,,0.09,weatherlink.com 1.10,2013-11-07 13:59:00,
2013-11-07 08:14:00,63.9,64.0,30.11,NW,307,2.0,7.0,99,0.08,,,0.12,weatherlink.com 1.10,2013-11-07 14:14:00,
2013-11-07 08:29:00,63.8,63.0,30.12,WNW,291,3.0,8.0,98,0.07,,,0.14,weatherlink.com 1.10,2013-11-07 14:29:00,
2013-11-07 08:44:00,63.8,63.0,30.12,West,271,1.0,7.0,98,0.08,,,0.16,weatherlink.com 1.10,2013-11-07 14:44:00,
2013-11-07 08:59:00,63.8,64.0,30.13,WNW,293,1.0,3.0,99,0.09,,,0.18,weatherlink.com 1.10,2013-11-07 14:59:00,
2013-11-07 09:15:00,63.8,64.0,30.13,West,273,1.0,6.0,99,0.05,,,0.18,weatherlink.com 1.10,2013-11-07 15:15:00,
2013-11-07 09:30:00,63.3,63.0,30.14,NW,315,2.0,8.0,98,0.04,,,0.19,weatherlink.com 1.10,2013-11-07 15:30:00,
2013-11-07 09:45:00,62.4,62.0,30.14,South,189,0.0,12.0,98,0.03,,,0.19,weatherlink.com 1.10,2013-11-07 15:45:00,
2013-11-07 10:15:00,61.8,61.0,30.15,NW,305,2.0,9.0,97,0.01,,,0.19,weatherlink.com 1.10,2013-11-07 16:15:00,
2013-11-07 10:30:00,60.9,60.0,30.15,West,266,0.0,10.0,97,0.00,,,0.19,weatherlink.com 1.10,2013-11-07 16:30:00,
2013-11-07 10:45:00,59.9,59.0,30.15,West,281,3.0,7.0,97,0.00,,,0.19,weatherlink.com 1.10,2013-11-07 16:45:00,
2013-11-07 11:00:00,58.2,57.0,30.16,SSW,192,2.0,11.0,96,0.00,,,0.19,weatherlink.com 1.10,2013-11-07 17:00:00,
2013-11-07 11:15:00,56.9,56.0,30.15,WNW,293,1.0,7.0,97,0.00,,,0.19,weatherlink.com 1.10,2013-11-07 17:15:00,
2013-11-07 11:30:00,56.7,56.0,30.15,NW,309,2.0,7.0,97,0.00,,,0.19,weatherlink.com 1.10,2013-11-07 17:30:00,
2013-11-07 11:45:00,56.5,56.0,30.15,West,266,5.0,7.0,97,0.00,,,0.19,weatherlink.com 1.10,2013-11-07 17:45:00,
2013-11-07 12:00:00,56.3,55.0,30.15,West,278,2.0,8.0,96,0.00,,,0.19,weatherlink.com 1.10,2013-11-07 18:00:00,
2013-11-07 12:15:00,56.3,55.0,30.15,West,281,1.0,8.0,96,0.00,,,0.19,weatherlink.com 1.10,2013-11-07 18:15:00,
2013-11-07 12:30:00,55.7,54.0,30.15,SSW,195,3.0,8.0,94,0.00,,,0.19,weatherlink.com 1.10,2013-11-07 18:30:00,
2013-11-07 12:45:00,55.6,54.0,30.14,WNW,296,2.0,8.0,94,0.00,,,0.19,weatherlink.com 1.10,2013-11-07 18:45:00,
2013-11-07 13:00:00,55.3,54.0,30.14,NW,314,2.0,6.0,94,0.00,,,0.19,weatherlink.com 1.10,2013-11-07 19:00:00,
2013-11-07 13:15:00,55.8,54.0,30.14,WNW,283,2.0,9.0,92,0.00,,,0.19,weatherlink.com 1.10,2013-11-07 19:15:00,
2013-11-07 13:30:00,56.7,53.0,30.15,WSW,239,4.0,9.0,87,0.00,,,0.19,weatherlink.com 1.10,2013-11-07 19:30:00,
2013-11-07 13:45:00,56.7,52.0,30.14,WNW,294,3.0,8.0,84,0.00,,,0.19,weatherlink.com 1.10,2013-11-07 19:45:00,
2013-11-07 14:00:00,57.0,52.0,30.14,West,273,3.0,11.0,82,0.00,,,0.19,weatherlink.com 1.10,2013-11-07 20:00:00,
2013-11-07 14:15:00,57.9,51.0,30.14,WNW,297,4.0,6.0,79,0.00,,,0.19,weatherlink.com 1.10,2013-11-07 20:15:00,
2013-11-07 14:30:00,57.4,52.0,30.14,NW,305,3.0,9.0,81,0.00,,,0.19,weatherlink.com 1.10,2013-11-07 20:30:00,
2013-11-07 14:45:00,57.8,52.0,30.14,WSW,248,1.0,6.0,81,0.00,,,0.19,weatherlink.com 1.10,2013-11-07 20:45:00,
2013-11-07 15:00:00,57.7,50.0,30.14,NW,322,2.0,10.0,76,0.00,,,0.19,weatherlink.com 1.10,2013-11-07 21:00:00,
2013-11-07 15:15:00,57.4,50.0,30.14,NW,304,4.0,8.0,76,0.00,,,0.19,weatherlink.com 1.10,2013-11-07 21:15:00,
2013-11-07 15:30:00,57.0,50.0,30.14,West,280,5.0,7.0,78,0.00,,,0.19,weatherlink.com 1.10,2013-11-07 21:30:00,
2013-11-07 15:45:00,56.2,49.0,30.14,NW,309,3.0,6.0,77,0.00,,,0.19,weatherlink.com 1.10,2013-11-07 21:45:00,
2013-11-07 16:00:00,55.4,49.0,30.15,WNW,294,1.0,7.0,80,0.00,,,0.19,weatherlink.com 1.10,2013-11-07 22:00:00,
2013-11-07 16:15:00,54.9,49.0,30.15,WNW,286,1.0,5.0,81,0.00,,,0.19,weatherlink.com 1.10,2013-11-07 22:15:00,
2013-11-07 16:30:00,54.3,49.0,30.16,WNW,300,1.0,6.0,81,0.00,,,0.19,weatherlink.com 1.10,2013-11-07 22:30:00,
2013-11-07 16:45:00,53.7,48.0,30.16,WNW,286,1.0,3.0,82,0.00,,,0.19,weatherlink.com 1.10,2013-11-07 22:45:00,
2013-11-07 17:00:00,53.0,48.0,30.17,WNW,291,1.0,3.0,83,0.00,,,0.19,weatherlink.com 1.10,2013-11-07 23:00:00,
2013-11-07 17:15:00,52.2,48.0,30.17,WNW,293,1.0,4.0,85,0.00,,,0.19,weatherlink.com 1.10,2013-11-07 23:15:00,
2013-11-07 17:45:00,51.0,47.0,30.18,WNW,283,1.0,7.0,86,0.00,,,0.19,weatherlink.com 1.10,2013-11-07 23:45:00,
2013-11-07 18:01:00,50.5,47.0,30.18,West,281,1.0,2.0,86,0.00,,,0.19,weatherlink.com 1.10,2013-11-08 00:01:00,
2013-11-07 18:16:00,50.1,46.0,30.18,West,276,1.0,3.0,86,0.00,,,0.19,weatherlink.com 1.10,2013-11-08 00:16:00,
2013-11-07 18:31:00,49.9,46.0,30.18,NW,309,0.0,4.0,86,0.00,,,0.19,weatherlink.com 1.10,2013-11-08 00:31:00,
2013-11-07 18:46:00,49.6,46.0,30.19,WNW,288,1.0,5.0,86,0.00,,,0.19,weatherlink.com 1.10,2013-11-08 00:46:00,
2013-11-07 19:16:00,49.0,44.0,30.20,WNW,287,2.0,5.0,84,0.00,,,0.19,weatherlink.com 1.10,2013-11-08 01:16:00,
2013-11-07 19:31:00,48.9,44.0,30.21,NW,312,2.0,7.0,83,0.00,,,0.19,weatherlink.com 1.10,2013-11-08 01:31:00,
2013-11-07 19:46:00,48.6,44.0,30.21,WSW,253,2.0,6.0,84,0.00,,,0.19,weatherlink.com 1.10,2013-11-08 01:46:00,
2013-11-07 20:01:00,48.4,44.0,30.21,NW,304,2.0,5.0,83,0.00,,,0.19,weatherlink.com 1.10,2013-11-08 02:01:00,
2013-11-07 20:16:00,48.4,44.0,30.21,WNW,300,2.0,7.0,83,0.00,,,0.19,weatherlink.com 1.10,2013-11-08 02:16:00,
2013-11-07 20:31:00,48.2,43.0,30.22,WNW,300,1.0,7.0,82,0.00,,,0.19,weatherlink.com 1.10,2013-11-08 02:31:00,
2013-11-07 20:46:00,48.3,43.0,30.23,West,279,1.0,5.0,82,0.00,,,0.19,weatherlink.com 1.10,2013-11-08 02:46:00,
2013-11-07 21:01:00,47.8,43.0,30.23,WNW,287,1.0,5.0,83,0.00,,,0.19,weatherlink.com 1.10,2013-11-08 03:01:00,
2013-11-07 21:16:00,47.4,43.0,30.24,West,271,1.0,3.0,84,0.00,,,0.19,weatherlink.com 1.10,2013-11-08 03:16:00,
2013-11-07 21:31:00,47.0,42.0,30.24,WNW,286,1.0,2.0,84,0.00,,,0.19,weatherlink.com 1.10,2013-11-08 03:31:00,
2013-11-07 21:46:00,46.7,42.0,30.24,West,277,2.0,4.0,84,0.00,,,0.19,weatherlink.com 1.10,2013-11-08 03:46:00,
2013-11-07 22:01:00,46.3,42.0,30.24,NW,309,2.0,3.0,84,0.00,,,0.19,weatherlink.com 1.10,2013-11-08 04:01:00,
2013-11-07 22:16:00,46.0,41.0,30.24,WNW,302,1.0,3.0,84,0.00,,,0.19,weatherlink.com 1.10,2013-11-08 04:16:00,
2013-11-07 22:31:00,45.8,42.0,30.23,WNW,297,1.0,6.0,85,0.00,,,0.19,weatherlink.com 1.10,2013-11-08 04:31:00,
2013-11-07 22:46:00,45.5,42.0,30.23,WNW,290,1.0,-999.0,86,-99.99,,,0.19,weatherlink.com 1.10,2013-11-08 04:46:00,
2013-11-07 23:01:00,45.2,41.0,30.23,WNW,292,1.0,2.0,86,0.00,,,0.19,weatherlink.com 1.10,2013-11-08 05:01:00,
2013-11-07 23:16:00,44.6,41.0,30.23,West,269,1.0,3.0,86,0.00,,,0.19,weatherlink.com 1.10,2013-11-08 05:16:00,
2013-11-07 23:31:00,44.4,41.0,30.23,NW,316,2.0,3.0,86,0.00,,,0.19,weatherlink.com 1.10,2013-11-08 05:31:00,
2013-11-07 23:46:00,44.1,40.0,30.23,WSW,239,0.0,3.0,85,0.00,,,0.19,weatherlink.com 1.10,2013-11-08 05:46:00,